createdAt,value
2017-06-19T00:00:00.637Z,19.00
2017-06-19T00:02:29.115Z,19.00
2017-06-19T00:04:57.593Z,19.00
2017-06-19T00:07:26.081Z,19.00
2017-06-19T00:09:54.245Z,19.00
2017-06-19T00:12:22.325Z,18.90
2017-06-19T00:14:50.385Z,19.00
2017-06-19T00:17:18.466Z,19.00
2017-06-19T00:19:46.527Z,19.00
2017-06-19T00:22:14.581Z,19.10
2017-06-19T00:24:42.681Z,19.00
2017-06-19T00:27:10.750Z,19.00
2017-06-19T00:29:38.812Z,18.90
2017-06-19T00:32:06.922Z,19.00
2017-06-19T00:34:35.078Z,19.00
2017-06-19T00:37:03.139Z,18.90
2017-06-19T00:39:31.376Z,18.90
2017-06-19T00:41:59.393Z,18.80
2017-06-19T00:44:27.487Z,18.90
2017-06-19T00:46:55.933Z,18.80
2017-06-19T00:49:24.386Z,18.90
2017-06-19T00:51:53.222Z,18.90
2017-06-19T00:54:21.293Z,18.90
2017-06-19T00:56:49.373Z,18.90
2017-06-19T00:59:17.416Z,18.80
2017-06-19T01:01:45.518Z,18.80
2017-06-19T01:04:13.680Z,18.80
2017-06-19T01:06:42.514Z,18.90
2017-06-19T01:09:11.351Z,18.80
2017-06-19T01:11:39.440Z,18.90
2017-06-19T01:14:07.630Z,18.80
2017-06-19T01:16:35.689Z,18.80
2017-06-19T01:19:03.770Z,18.80
2017-06-19T01:21:32.222Z,18.80
2017-06-19T01:24:00.297Z,18.70
2017-06-19T01:26:28.379Z,18.80
2017-06-19T01:28:56.481Z,18.70
2017-06-19T01:31:24.613Z,18.80
2017-06-19T01:33:52.789Z,18.80
2017-06-19T01:36:21.653Z,18.80
2017-06-19T01:38:49.702Z,18.80
2017-06-19T01:41:18.550Z,18.70
2017-06-19T01:43:46.714Z,18.80
2017-06-19T01:46:15.198Z,18.80
2017-06-19T01:48:43.274Z,18.80
2017-06-19T01:51:11.451Z,18.80
2017-06-19T01:53:39.529Z,18.70
2017-06-19T01:56:07.692Z,18.60
2017-06-19T01:58:35.771Z,18.60
2017-06-19T02:01:03.835Z,18.50
2017-06-19T02:03:33.038Z,18.50
2017-06-19T02:06:01.206Z,18.50
2017-06-19T02:08:29.689Z,18.50
2017-06-19T02:10:57.781Z,18.40
2017-06-19T02:13:25.936Z,18.40
2017-06-19T02:15:53.983Z,18.30
2017-06-19T02:18:22.077Z,18.30
2017-06-19T02:20:50.146Z,18.30
2017-06-19T02:23:18.962Z,18.30
2017-06-19T02:25:47.443Z,18.20
2017-06-19T02:28:15.593Z,18.00
2017-06-19T02:30:43.645Z,18.00
2017-06-19T02:33:11.749Z,18.00
2017-06-19T02:35:39.802Z,18.00
2017-06-19T02:38:07.882Z,17.90
2017-06-19T02:40:36.055Z,17.90
2017-06-19T02:43:04.110Z,17.80
2017-06-19T02:45:32.207Z,17.90
2017-06-19T02:48:00.374Z,17.80
2017-06-19T02:50:28.425Z,17.80
2017-06-19T02:52:56.482Z,17.80
2017-06-19T02:55:25.335Z,17.80
2017-06-19T02:57:53.478Z,17.80
2017-06-19T03:00:21.585Z,17.70
2017-06-19T03:02:49.731Z,17.70
2017-06-19T03:05:17.800Z,17.80
2017-06-19T03:07:45.871Z,17.80
2017-06-19T03:10:26.414Z,17.70
2017-06-19T03:12:54.605Z,17.80
2017-06-19T03:15:23.190Z,17.80
2017-06-19T03:17:51.365Z,17.80
2017-06-19T03:20:20.188Z,17.70
2017-06-19T03:22:48.298Z,17.70
2017-06-19T03:25:16.406Z,17.70
2017-06-19T03:27:44.491Z,17.70
2017-06-19T03:30:12.650Z,17.70
2017-06-19T03:32:40.733Z,17.70
2017-06-19T03:35:09.610Z,17.70
2017-06-19T03:37:37.785Z,17.70
2017-06-19T03:40:06.261Z,17.70
2017-06-19T03:42:35.078Z,17.70
2017-06-19T03:45:03.550Z,17.60
2017-06-19T03:47:31.602Z,17.50
2017-06-19T03:49:59.687Z,17.50
2017-06-19T03:52:27.737Z,17.60
2017-06-19T03:54:55.789Z,17.50
2017-06-19T03:57:24.717Z,17.40
2017-06-19T03:59:53.201Z,17.40
2017-06-19T04:02:21.262Z,17.40
2017-06-19T04:04:49.441Z,17.40
2017-06-19T04:07:18.632Z,17.40
2017-06-19T04:09:46.711Z,17.60
2017-06-19T04:12:14.882Z,17.60
2017-06-19T04:14:43.063Z,17.70
2017-06-19T04:17:11.113Z,17.60
2017-06-19T04:19:39.198Z,17.60
2017-06-19T04:22:07.253Z,17.70
2017-06-19T04:24:35.352Z,17.70
2017-06-19T04:27:03.432Z,17.70
2017-06-19T04:29:31.593Z,17.80
2017-06-19T04:31:59.667Z,17.80
2017-06-19T04:34:27.851Z,17.80
2017-06-19T04:36:56.738Z,17.80
2017-06-19T04:39:24.917Z,17.80
2017-06-19T04:41:53.007Z,17.90
2017-06-19T04:44:21.161Z,17.90
2017-06-19T04:46:49.229Z,18.00
2017-06-19T04:49:17.403Z,18.00
2017-06-19T04:51:45.472Z,18.10
2017-06-19T04:54:13.526Z,18.20
2017-06-19T04:56:41.613Z,18.30
2017-06-19T04:59:09.693Z,18.40
2017-06-19T05:01:37.759Z,18.50
2017-06-19T05:04:05.935Z,18.60
2017-06-19T05:06:34.101Z,18.70
2017-06-19T05:09:02.202Z,18.90
2017-06-19T05:11:30.357Z,18.90
2017-06-19T05:13:58.410Z,19.00
2017-06-19T05:16:26.597Z,19.10
2017-06-19T05:18:55.082Z,19.20
2017-06-19T05:21:23.138Z,19.30
2017-06-19T05:23:51.342Z,19.40
2017-06-19T05:26:19.402Z,19.50
2017-06-19T05:28:47.453Z,19.60
2017-06-19T05:31:15.537Z,19.70
2017-06-19T05:33:44.726Z,19.80
2017-06-19T05:36:12.934Z,19.90
2017-06-19T05:38:40.990Z,20.00
2017-06-19T05:41:09.466Z,20.20
2017-06-19T05:43:37.646Z,20.20
2017-06-19T05:46:05.713Z,20.30
2017-06-19T05:48:33.895Z,20.40
2017-06-19T05:51:01.946Z,20.50
2017-06-19T05:53:30.030Z,20.70
2017-06-19T05:55:58.207Z,20.70
2017-06-19T05:58:26.259Z,20.80
2017-06-19T06:00:54.312Z,20.90
2017-06-19T06:03:23.146Z,21.00
2017-06-19T06:05:51.197Z,21.10
2017-06-19T06:08:20.058Z,21.30
2017-06-19T06:10:48.270Z,21.40
2017-06-19T06:13:17.457Z,21.40
2017-06-19T06:15:45.526Z,21.50
2017-06-19T06:18:13.578Z,21.60
2017-06-19T06:20:42.510Z,21.70
2017-06-19T06:23:11.341Z,21.80
2017-06-19T06:25:39.473Z,21.90
2017-06-19T06:28:07.960Z,22.00
2017-06-19T06:30:36.026Z,22.10
2017-06-19T06:33:04.082Z,22.10
2017-06-19T06:35:32.170Z,22.20
2017-06-19T06:38:01.059Z,22.30
2017-06-19T06:40:29.538Z,22.40
2017-06-19T06:42:57.594Z,22.50
2017-06-19T06:45:25.798Z,22.50
2017-06-19T06:47:53.857Z,22.60
2017-06-19T06:50:22.032Z,22.70
2017-06-19T06:52:50.522Z,22.80
2017-06-19T06:55:18.578Z,22.90
2017-06-19T06:57:46.757Z,22.80
2017-06-19T07:00:14.930Z,23.00
2017-06-19T07:02:42.990Z,23.00
2017-06-19T07:05:11.185Z,23.10
2017-06-19T07:07:39.357Z,23.20
2017-06-19T07:10:07.426Z,23.30
2017-06-19T07:12:35.498Z,23.40
2017-06-19T07:15:03.674Z,23.50
2017-06-19T07:17:31.800Z,23.70
2017-06-19T07:19:59.922Z,23.70
2017-06-19T07:22:27.990Z,23.70
2017-06-19T07:24:56.374Z,23.70
2017-06-19T07:27:24.430Z,23.80
2017-06-19T07:29:52.510Z,23.90
2017-06-19T07:32:20.682Z,23.90
2017-06-19T07:34:48.764Z,24.00
2017-06-19T07:37:16.813Z,24.00
2017-06-19T07:39:44.911Z,24.30
2017-06-19T07:42:12.978Z,24.40
2017-06-19T07:44:41.149Z,24.50
2017-06-19T07:47:09.734Z,24.50
2017-06-19T07:49:37.802Z,24.70
2017-06-19T07:52:05.862Z,24.80
2017-06-19T07:54:34.050Z,25.10
2017-06-19T07:57:02.106Z,25.20
2017-06-19T07:59:30.189Z,25.20
2017-06-19T08:01:58.370Z,25.30
2017-06-19T08:04:26.447Z,25.50
2017-06-19T08:06:54.514Z,25.70
2017-06-19T08:09:22.686Z,25.90
2017-06-19T08:11:50.762Z,26.00
2017-06-19T08:14:18.826Z,26.10
2017-06-19T08:16:47.018Z,26.30
2017-06-19T08:19:15.083Z,26.40
2017-06-19T08:21:48.831Z,26.50
2017-06-19T08:24:16.887Z,26.50
2017-06-19T08:26:45.025Z,26.70
2017-06-19T08:29:13.206Z,26.90
2017-06-19T08:31:41.370Z,26.90
2017-06-19T08:34:09.559Z,27.00
2017-06-19T08:36:37.710Z,27.10
2017-06-19T08:39:05.794Z,27.20
2017-06-19T08:41:33.850Z,27.40
2017-06-19T08:44:01.935Z,27.40
2017-06-19T08:46:30.026Z,27.60
2017-06-19T08:48:58.088Z,27.90
2017-06-19T08:51:26.144Z,28.00
2017-06-19T08:53:54.331Z,28.00
2017-06-19T08:56:22.402Z,27.90
2017-06-19T08:58:50.458Z,28.10
2017-06-19T09:01:18.530Z,28.10
2017-06-19T09:03:46.922Z,28.30
2017-06-19T09:06:14.989Z,28.60
2017-06-19T09:08:43.041Z,28.50
2017-06-19T09:11:11.114Z,28.80
2017-06-19T09:13:39.169Z,28.70
2017-06-19T09:16:08.018Z,29.20
2017-06-19T09:18:36.074Z,29.20
2017-06-19T09:21:04.882Z,29.30
2017-06-19T09:23:32.949Z,29.30
2017-06-19T09:26:01.009Z,29.40
2017-06-19T09:28:29.087Z,29.40
2017-06-19T09:30:57.141Z,29.50
2017-06-19T09:33:25.205Z,29.70
2017-06-19T09:35:53.406Z,30.00
2017-06-19T09:38:21.458Z,30.20
2017-06-19T09:40:49.529Z,30.20
2017-06-19T09:43:17.670Z,30.60
2017-06-19T09:45:46.487Z,30.30
2017-06-19T09:48:14.538Z,30.40
2017-06-19T09:50:43.465Z,30.70
2017-06-19T09:53:11.539Z,30.70
2017-06-19T09:55:39.609Z,30.90
2017-06-19T09:58:07.782Z,31.00
2017-06-19T10:00:35.854Z,30.70
2017-06-19T10:03:03.925Z,31.20
2017-06-19T10:05:32.014Z,31.20
2017-06-19T10:08:00.070Z,31.40
2017-06-19T10:10:28.121Z,31.30
2017-06-19T10:12:56.257Z,31.30
2017-06-19T10:15:24.306Z,31.30
2017-06-19T10:17:52.462Z,31.20
2017-06-19T10:20:20.577Z,31.70
2017-06-19T10:22:48.643Z,31.70
2017-06-19T10:25:16.780Z,31.90
2017-06-19T10:27:44.862Z,32.00
2017-06-19T10:30:12.922Z,32.10
2017-06-19T10:32:40.982Z,32.00
2017-06-19T10:35:09.060Z,32.00
2017-06-19T10:37:37.115Z,32.40
2017-06-19T10:40:05.166Z,32.40
2017-06-19T10:42:34.019Z,32.30
2017-06-19T10:45:02.074Z,32.50
2017-06-19T10:47:30.148Z,32.50
2017-06-19T10:49:58.214Z,32.80
2017-06-19T10:52:26.266Z,32.80
2017-06-19T10:54:54.338Z,33.00
2017-06-19T10:57:22.394Z,33.00
2017-06-19T10:59:51.249Z,33.00
2017-06-19T11:02:19.345Z,33.00
2017-06-19T11:04:48.169Z,33.30
2017-06-19T11:07:16.257Z,33.30
2017-06-19T11:09:44.430Z,33.70
2017-06-19T11:12:12.600Z,33.70
2017-06-19T11:14:40.667Z,33.90
2017-06-19T11:17:08.727Z,34.00
2017-06-19T11:19:37.121Z,34.10
2017-06-19T11:22:05.178Z,34.10
2017-06-19T11:24:33.235Z,34.20
2017-06-19T11:27:01.337Z,34.50
2017-06-19T11:29:29.413Z,34.40
2017-06-19T11:31:57.598Z,34.40
2017-06-19T11:34:25.654Z,34.40
2017-06-19T11:36:53.721Z,34.60
2017-06-19T11:39:21.797Z,34.60
2017-06-19T11:41:49.859Z,34.40
2017-06-19T11:44:18.182Z,33.90
2017-06-19T11:46:46.270Z,34.20
2017-06-19T11:49:15.093Z,34.70
2017-06-19T11:51:43.150Z,34.80
2017-06-19T11:54:11.233Z,35.10
2017-06-19T11:56:39.314Z,35.60
2017-06-19T11:59:07.368Z,35.40
2017-06-19T12:01:35.422Z,35.50
2017-06-19T12:04:04.261Z,35.60
2017-06-19T12:06:32.354Z,35.60
2017-06-19T12:09:00.453Z,35.30
2017-06-19T12:11:28.567Z,35.20
2017-06-19T12:13:57.403Z,35.20
2017-06-19T12:16:25.470Z,35.20
2017-06-19T12:18:53.624Z,35.20
2017-06-19T12:21:21.691Z,34.70
2017-06-19T12:23:49.881Z,35.10
2017-06-19T12:26:17.954Z,35.30
2017-06-19T12:28:46.012Z,35.40
2017-06-19T12:31:14.123Z,35.70
2017-06-19T12:33:42.957Z,36.10
2017-06-19T12:36:11.005Z,36.00
2017-06-19T12:38:39.142Z,35.60
2017-06-19T12:41:07.173Z,35.40
2017-06-19T12:43:35.234Z,35.70
2017-06-19T12:46:03.426Z,35.80
2017-06-19T12:48:31.478Z,36.20
2017-06-19T12:50:59.575Z,36.20
2017-06-19T12:53:27.745Z,35.90
2017-06-19T12:55:55.803Z,35.80
2017-06-19T12:58:23.989Z,36.20
2017-06-19T13:00:52.061Z,36.20
2017-06-19T13:03:20.133Z,36.20
2017-06-19T13:05:48.307Z,36.80
2017-06-19T13:08:16.378Z,36.80
2017-06-19T13:10:44.461Z,36.90
2017-06-19T13:13:12.533Z,36.90
2017-06-19T13:15:40.593Z,36.80
2017-06-19T13:18:08.674Z,36.90
2017-06-19T13:20:36.797Z,36.80
2017-06-19T13:23:05.637Z,36.10
2017-06-19T13:25:33.710Z,36.10
2017-06-19T13:28:01.816Z,35.90
2017-06-19T13:30:29.974Z,36.30
2017-06-19T13:32:58.258Z,36.30
2017-06-19T13:35:26.393Z,36.80
2017-06-19T13:37:54.891Z,36.80
2017-06-19T13:40:22.948Z,36.40
2017-06-19T13:42:51.034Z,36.50
2017-06-19T13:45:19.101Z,36.60
2017-06-19T13:47:47.176Z,36.80
2017-06-19T13:50:15.298Z,37.00
2017-06-19T13:52:44.160Z,37.30
2017-06-19T13:55:12.318Z,37.10
2017-06-19T13:57:40.477Z,37.00
2017-06-19T14:00:08.542Z,37.40
2017-06-19T14:02:36.646Z,37.40
2017-06-19T14:05:04.734Z,37.90
2017-06-19T14:07:32.789Z,37.50
2017-06-19T14:10:00.937Z,37.30
2017-06-19T14:12:29.026Z,37.10
2017-06-19T14:14:57.205Z,36.90
2017-06-19T14:17:25.303Z,37.00
2017-06-19T14:19:53.410Z,36.50
2017-06-19T14:22:21.494Z,36.50
2017-06-19T14:24:49.690Z,36.80
2017-06-19T14:27:17.854Z,37.30
2017-06-19T14:29:46.682Z,37.20
2017-06-19T14:32:14.834Z,37.60
2017-06-19T14:34:43.004Z,37.60
2017-06-19T14:37:11.069Z,37.90
2017-06-19T14:39:39.137Z,37.90
2017-06-19T14:42:07.230Z,37.80
2017-06-19T14:44:35.382Z,37.30
2017-06-19T14:47:03.449Z,37.30
2017-06-19T14:49:31.522Z,37.70
2017-06-19T14:51:59.650Z,37.70
2017-06-19T14:54:27.855Z,37.80
2017-06-19T14:56:55.945Z,37.80
2017-06-19T14:59:24.127Z,37.60
2017-06-19T15:01:52.922Z,37.60
2017-06-19T15:04:21.555Z,37.60
2017-06-19T15:06:49.695Z,37.40
2017-06-19T15:09:17.758Z,37.40
2017-06-19T15:11:45.849Z,37.00
2017-06-19T15:14:13.958Z,37.30
2017-06-19T15:16:42.103Z,37.40
2017-06-19T15:19:10.192Z,37.40
2017-06-19T15:21:44.801Z,37.40
2017-06-19T15:24:12.937Z,37.10
2017-06-19T15:26:41.054Z,36.80
2017-06-19T15:29:09.183Z,36.80
2017-06-19T15:31:37.306Z,36.50
2017-06-19T15:34:05.337Z,36.50
2017-06-19T15:36:33.420Z,35.70
2017-06-19T15:39:01.522Z,36.00
2017-06-19T15:41:29.970Z,36.00
2017-06-19T15:43:58.133Z,35.90
2017-06-19T15:46:26.289Z,36.20
2017-06-19T15:48:54.360Z,36.30
2017-06-19T15:51:23.584Z,36.10
2017-06-19T15:53:51.849Z,35.70
2017-06-19T15:56:19.972Z,35.70
2017-06-19T15:58:48.969Z,35.70
2017-06-19T16:01:17.810Z,35.70
2017-06-19T16:03:45.890Z,35.70
2017-06-19T16:06:14.438Z,35.30
2017-06-19T16:08:42.573Z,35.20
2017-06-19T16:11:11.462Z,35.40
2017-06-19T16:13:40.393Z,35.20
2017-06-19T16:16:08.469Z,35.20
2017-06-19T16:18:36.645Z,35.10
2017-06-19T16:21:04.829Z,35.00
2017-06-19T16:23:32.903Z,34.70
2017-06-19T16:26:00.990Z,34.70
2017-06-19T16:28:29.058Z,34.60
2017-06-19T16:30:57.234Z,34.50
2017-06-19T16:33:25.293Z,34.40
2017-06-19T16:35:53.474Z,34.20
2017-06-19T16:38:21.538Z,34.20
2017-06-19T16:40:49.613Z,34.10
2017-06-19T16:43:17.690Z,33.90
2017-06-19T16:45:46.805Z,33.20
2017-06-19T16:48:14.946Z,33.20
2017-06-19T16:50:43.409Z,32.80
2017-06-19T16:53:11.557Z,32.70
2017-06-19T16:55:39.634Z,32.60
2017-06-19T16:58:08.466Z,32.60
2017-06-19T17:00:36.558Z,32.60
2017-06-19T17:03:04.619Z,32.60
2017-06-19T17:05:32.798Z,32.40
2017-06-19T17:08:00.968Z,32.40
2017-06-19T17:10:29.472Z,32.20
2017-06-19T17:12:57.630Z,32.10
2017-06-19T17:15:25.797Z,32.00
2017-06-19T17:17:54.303Z,31.90
2017-06-19T17:20:22.466Z,31.90
2017-06-19T17:22:50.636Z,31.80
2017-06-19T17:25:18.722Z,31.70
2017-06-19T17:27:46.886Z,31.60
2017-06-19T17:30:15.973Z,31.50
2017-06-19T17:32:44.010Z,31.40
2017-06-19T17:35:12.111Z,31.20
2017-06-19T17:37:40.178Z,31.10
2017-06-19T17:40:08.267Z,31.10
2017-06-19T17:42:36.358Z,31.10
2017-06-19T17:45:04.743Z,30.90
2017-06-19T17:47:32.925Z,30.80
2017-06-19T17:50:01.915Z,30.70
2017-06-19T17:52:30.042Z,30.70
2017-06-19T17:54:58.139Z,30.60
2017-06-19T17:57:26.265Z,30.50
2017-06-19T17:59:54.360Z,30.40
2017-06-19T18:02:22.872Z,30.30
2017-06-19T18:04:51.421Z,30.20
2017-06-19T18:07:19.477Z,30.10
2017-06-19T18:09:47.565Z,29.90
2017-06-19T18:12:15.624Z,30.00
2017-06-19T18:14:43.716Z,29.90
2017-06-19T18:17:11.883Z,29.80
2017-06-19T18:19:39.966Z,29.80
2017-06-19T18:22:08.027Z,29.70
2017-06-19T18:24:36.117Z,29.60
2017-06-19T18:27:04.571Z,29.30
2017-06-19T18:29:32.663Z,29.30
2017-06-19T18:32:00.833Z,29.20
2017-06-19T18:34:29.286Z,29.10
2017-06-19T18:36:57.385Z,29.00
2017-06-19T18:39:25.558Z,28.80
2017-06-19T18:41:53.688Z,28.70
2017-06-19T18:44:21.802Z,28.60
2017-06-19T18:46:49.887Z,28.50
2017-06-19T18:49:17.942Z,28.30
2017-06-19T18:51:46.017Z,28.20
2017-06-19T18:54:14.621Z,28.00
2017-06-19T18:56:42.730Z,27.90
2017-06-19T18:59:11.636Z,27.90
2017-06-19T19:01:40.474Z,27.60
2017-06-19T19:04:08.932Z,27.50
2017-06-19T19:06:37.451Z,27.30
2017-06-19T19:09:06.874Z,27.30
2017-06-19T19:11:35.771Z,27.10
2017-06-19T19:14:04.634Z,26.90
2017-06-19T19:16:32.677Z,26.80
2017-06-19T19:19:01.162Z,26.80
2017-06-19T19:21:29.713Z,26.60
2017-06-19T19:23:57.770Z,26.50
2017-06-19T19:26:26.635Z,26.40
2017-06-19T19:28:54.694Z,26.30
2017-06-19T19:31:22.750Z,26.30
2017-06-19T19:33:50.927Z,26.20
2017-06-19T19:36:19.406Z,26.00
2017-06-19T19:38:48.289Z,25.90
2017-06-19T19:41:16.469Z,25.80
2017-06-19T19:43:44.918Z,25.70
2017-06-19T19:46:13.026Z,25.50
2017-06-19T19:48:41.202Z,25.40
2017-06-19T19:51:09.267Z,25.40
2017-06-19T19:53:37.451Z,25.30
2017-06-19T19:56:05.514Z,25.20
2017-06-19T19:58:33.575Z,25.20
2017-06-19T20:01:01.675Z,25.10
2017-06-19T20:03:29.858Z,25.00
2017-06-19T20:05:58.010Z,24.90
2017-06-19T20:08:26.086Z,24.90
2017-06-19T20:10:54.135Z,24.80
2017-06-19T20:13:22.623Z,24.80
2017-06-19T20:15:50.692Z,24.70
2017-06-19T20:18:19.598Z,24.80
2017-06-19T20:20:47.765Z,24.70
2017-06-19T20:23:16.255Z,24.70
2017-06-19T20:25:44.321Z,24.70
2017-06-19T20:28:12.503Z,24.70
2017-06-19T20:30:40.562Z,24.50
2017-06-19T20:33:08.617Z,24.50
2017-06-19T20:35:36.690Z,24.50
2017-06-19T20:38:04.748Z,24.40
2017-06-19T20:40:33.679Z,24.30
2017-06-19T20:43:01.742Z,24.30
2017-06-19T20:45:29.821Z,24.30
2017-06-19T20:47:57.995Z,24.10
2017-06-19T20:50:26.061Z,24.10
2017-06-19T20:52:54.133Z,24.10
2017-06-19T20:55:22.222Z,24.10
2017-06-19T20:57:50.277Z,24.00
2017-06-19T21:00:19.887Z,23.90
2017-06-19T21:02:48.068Z,23.90
2017-06-19T21:05:16.130Z,23.90
2017-06-19T21:07:44.187Z,23.90
2017-06-19T21:10:12.265Z,24.00
2017-06-19T21:12:40.454Z,23.90
2017-06-19T21:15:08.537Z,23.80
2017-06-19T21:17:36.693Z,23.90
2017-06-19T21:20:04.869Z,23.90
2017-06-19T21:22:32.922Z,23.90
2017-06-19T21:25:01.010Z,23.80
2017-06-19T21:27:29.086Z,23.80
2017-06-19T21:29:57.161Z,23.70
2017-06-19T21:32:25.333Z,23.70
2017-06-19T21:34:53.929Z,23.60
2017-06-19T21:37:22.094Z,23.50
2017-06-19T21:39:50.149Z,23.40
2017-06-19T21:42:18.238Z,23.40
2017-06-19T21:44:46.718Z,23.40
2017-06-19T21:47:14.786Z,23.40
2017-06-19T21:49:42.878Z,23.30
2017-06-19T21:52:11.031Z,23.30
2017-06-19T21:54:39.118Z,23.30
2017-06-19T21:57:07.586Z,23.30
2017-06-19T21:59:35.661Z,23.30
2017-06-19T22:02:04.489Z,23.30
2017-06-19T22:04:32.581Z,23.20
2017-06-19T22:07:01.401Z,23.20
2017-06-19T22:09:30.227Z,23.20
2017-06-19T22:11:58.339Z,23.10
2017-06-19T22:14:26.802Z,23.10
2017-06-19T22:16:54.858Z,23.10
2017-06-19T22:19:22.986Z,23.10
2017-06-19T22:21:56.813Z,23.10
2017-06-19T22:24:24.902Z,23.00
2017-06-19T22:26:52.966Z,23.00
2017-06-19T22:29:21.790Z,22.90
2017-06-19T22:31:50.646Z,22.90
2017-06-19T22:34:18.707Z,22.80
2017-06-19T22:36:47.599Z,22.80
2017-06-19T22:39:15.769Z,22.80
2017-06-19T22:41:43.831Z,22.80
2017-06-19T22:44:11.902Z,22.70
2017-06-19T22:46:40.001Z,22.70
2017-06-19T22:49:08.160Z,22.70
2017-06-19T22:51:36.227Z,22.60
2017-06-19T22:54:04.348Z,22.70
2017-06-19T22:56:32.470Z,22.70
2017-06-19T22:59:00.545Z,22.60
2017-06-19T23:01:29.025Z,22.60
2017-06-19T23:03:57.510Z,22.60
2017-06-19T23:06:25.681Z,22.60
2017-06-19T23:08:53.738Z,22.60
2017-06-19T23:11:21.930Z,22.50
2017-06-19T23:13:50.397Z,22.50
2017-06-19T23:16:18.590Z,22.50
2017-06-19T23:18:46.678Z,22.50
2017-06-19T23:21:14.738Z,22.40
2017-06-19T23:23:42.790Z,22.40
2017-06-19T23:26:11.278Z,22.30
2017-06-19T23:28:39.330Z,22.20
2017-06-19T23:31:07.387Z,22.20
2017-06-19T23:33:36.226Z,22.20
2017-06-19T23:36:04.370Z,22.10
2017-06-19T23:38:32.463Z,22.10
2017-06-19T23:41:00.633Z,22.00
2017-06-19T23:43:28.807Z,21.90
2017-06-19T23:45:56.985Z,21.90
2017-06-19T23:48:25.049Z,21.90
2017-06-19T23:50:53.236Z,21.90
2017-06-19T23:53:21.402Z,21.90
2017-06-19T23:55:49.504Z,21.80
2017-06-19T23:58:17.562Z,21.80
